Clifton, Idaho
Current Conditions -  °F | °C
As of 8:51 PM on Friday 28 Nov 2014 (Local Time) from KLGU Reporting Station
Clear Clear  
Wind Chill: 44°   Ceiling: Unl
Heat Index: 44°   Visibility: 10mi
Dew Point: 28°   Wind: 0mph
Humidity: 53%   Direction: NA
Pressure: 29.76"   Gusts: NA
Location:  42.19°N, 112.01°W
Report Text: KLGU 290351Z AUTO 00000KT 10SM CLR 07/M02 A2976 RMK AO2 SLP075 T00671022
Loading
Personal Weather Stations






























Interactive Weather Map New forecast layout! Learn more

10-Day Weather Forecast

Advertisements
Track Severe Weather on mobile